createdAt,value
2022-11-14T00:00:59.635Z,56.70
2022-11-14T00:03:26.777Z,60.00
2022-11-14T00:05:53.919Z,64.82
2022-11-14T00:08:22.348Z,62.67
2022-11-14T00:10:50.352Z,57.78
2022-11-14T00:13:18.133Z,58.72
2022-11-14T00:15:45.873Z,59.25
2022-11-14T00:18:12.949Z,60.72
2022-11-14T00:20:40.031Z,56.70
2022-11-14T00:23:07.097Z,61.92
2022-11-14T00:25:34.342Z,63.00
2022-11-14T00:28:01.471Z,58.75
2022-11-14T00:30:28.716Z,53.60
2022-11-14T00:32:55.802Z,58.45
2022-11-14T00:35:23.004Z,54.30
2022-11-14T00:37:50.702Z,54.70
2022-11-14T00:40:17.817Z,52.42
2022-11-14T00:42:44.977Z,47.05
2022-11-14T00:45:12.350Z,53.13
2022-11-14T00:47:39.534Z,51.53
2022-11-14T00:50:07.076Z,45.53
2022-11-14T00:52:34.150Z,45.33
2022-11-14T00:55:01.299Z,41.53
2022-11-14T00:57:28.513Z,41.42
2022-11-14T00:59:55.748Z,38.90
2022-11-14T01:02:23.062Z,40.53
2022-11-14T01:04:50.208Z,37.15
2022-11-14T01:07:17.500Z,38.40
2022-11-14T01:09:44.567Z,42.35
2022-11-14T01:12:11.979Z,37.72
2022-11-14T01:14:40.199Z,36.45
2022-11-14T01:17:07.588Z,37.05
2022-11-14T01:19:34.757Z,35.00
2022-11-14T01:22:06.143Z,35.53
2022-11-14T01:24:34.233Z,35.37
2022-11-14T01:27:01.763Z,34.17
2022-11-14T01:29:29.109Z,36.97
2022-11-14T01:31:56.558Z,36.58
2022-11-14T01:34:24.285Z,35.63
2022-11-14T01:36:51.372Z,33.58
2022-11-14T01:39:18.632Z,32.95
2022-11-14T01:41:45.820Z,33.05
2022-11-14T01:44:14.235Z,29.33
2022-11-14T01:46:42.434Z,31.02
2022-11-14T01:49:13.612Z,31.08
2022-11-14T01:51:46.261Z,32.17
2022-11-14T01:56:55.640Z,31.90
2022-11-14T01:59:24.614Z,33.38
2022-11-14T02:01:52.706Z,75.90
2022-11-14T02:04:30.894Z,109.43
2022-11-14T02:06:59.653Z,71.70
2022-11-14T02:09:28.872Z,299.20
2022-11-14T02:11:57.742Z,266.67
2022-11-14T02:14:25.030Z,416.25
2022-11-14T02:17:14.817Z,384.35
2022-11-14T02:20:05.144Z,296.52
2022-11-14T02:22:32.994Z,325.27
2022-11-14T02:25:00.072Z,358.60
2022-11-14T02:27:27.344Z,490.02
2022-11-14T02:29:54.402Z,265.40
2022-11-14T02:32:21.596Z,470.10
2022-11-14T02:34:48.698Z,347.42
2022-11-14T02:37:15.851Z,250.55
2022-11-14T02:39:42.967Z,212.23
2022-11-14T02:42:10.045Z,197.48
2022-11-14T02:44:37.138Z,160.73
2022-11-14T02:47:04.304Z,209.73
2022-11-14T02:49:31.943Z,256.98
2022-11-14T02:51:59.030Z,224.57
2022-11-14T02:54:26.155Z,97.60
2022-11-14T02:56:53.237Z,144.15
2022-11-14T02:59:20.361Z,93.50
2022-11-14T03:01:47.485Z,164.50
2022-11-14T03:04:14.580Z,143.98
2022-11-14T03:06:41.687Z,199.13
2022-11-14T03:09:08.761Z,73.35
2022-11-14T03:11:35.817Z,89.05
2022-11-14T03:14:02.922Z,67.30
2022-11-14T03:16:30.005Z,48.42
2022-11-14T03:18:57.680Z,31.23
2022-11-14T03:21:24.773Z,32.28
2022-11-14T03:23:51.850Z,28.88
2022-11-14T03:26:19.097Z,28.40
2022-11-14T03:28:46.741Z,30.13
2022-11-14T03:31:14.613Z,26.83
2022-11-14T03:33:41.772Z,29.30
2022-11-14T03:36:09.165Z,29.70
2022-11-14T03:38:36.326Z,28.48
2022-11-14T03:41:03.478Z,30.70
2022-11-14T03:43:31.685Z,26.75
2022-11-14T03:45:59.670Z,25.58
2022-11-14T03:48:27.399Z,26.90
2022-11-14T03:50:55.017Z,27.13
2022-11-14T03:53:22.148Z,30.77
2022-11-14T03:55:49.228Z,31.50
2022-11-14T03:58:16.320Z,34.58
2022-11-14T04:00:43.506Z,34.30
2022-11-14T04:03:10.638Z,34.90
2022-11-14T04:05:37.717Z,36.05
2022-11-14T04:08:08.133Z,37.45
2022-11-14T04:10:35.213Z,35.97
2022-11-14T04:13:02.347Z,34.08
2022-11-14T04:15:29.414Z,32.60
2022-11-14T04:17:56.619Z,35.58
2022-11-14T04:20:23.738Z,38.95
2022-11-14T04:22:50.832Z,37.22
2022-11-14T04:25:17.931Z,30.30
2022-11-14T04:27:45.029Z,33.88
2022-11-14T04:30:12.341Z,31.63
2022-11-14T04:32:39.445Z,34.60
2022-11-14T04:35:06.760Z,35.17
2022-11-14T04:37:33.872Z,33.58
2022-11-14T04:40:02.625Z,34.38
2022-11-14T04:42:29.743Z,37.00
2022-11-14T04:44:56.891Z,31.73
2022-11-14T04:47:24.009Z,33.80
2022-11-14T04:49:51.066Z,33.00
2022-11-14T04:52:18.242Z,30.02
2022-11-14T04:54:45.328Z,31.88
2022-11-14T04:57:12.465Z,32.08
2022-11-14T04:59:39.550Z,33.53
2022-11-14T05:02:06.640Z,31.58
2022-11-14T05:04:33.738Z,31.75
2022-11-14T05:07:01.055Z,32.55
2022-11-14T05:09:28.175Z,33.45
2022-11-14T05:11:55.327Z,30.63
2022-11-14T05:14:22.459Z,32.10
2022-11-14T05:16:49.537Z,30.15
2022-11-14T05:19:16.597Z,29.38
2022-11-14T05:21:43.733Z,29.00
2022-11-14T05:24:10.790Z,36.15
2022-11-14T05:26:38.176Z,32.92
2022-11-14T05:29:05.454Z,35.60
2022-11-14T05:31:32.577Z,33.25
2022-11-14T05:33:59.658Z,28.25
2022-11-14T05:36:26.758Z,30.23
2022-11-14T05:38:54.748Z,30.08
2022-11-14T05:41:21.938Z,30.73
2022-11-14T05:43:49.102Z,34.10
2022-11-14T05:46:16.865Z,37.65
2022-11-14T05:48:43.993Z,33.75
2022-11-14T05:51:12.174Z,31.10
2022-11-14T05:53:39.414Z,32.38
2022-11-14T05:56:07.688Z,37.03
2022-11-14T05:58:35.293Z,32.45
2022-11-14T06:01:07.322Z,33.42
2022-11-14T06:03:35.248Z,29.85
2022-11-14T06:06:03.238Z,28.95
2022-11-14T06:08:31.008Z,24.50
2022-11-14T06:11:02.047Z,25.25
2022-11-14T06:13:29.152Z,27.63
2022-11-14T06:16:00.031Z,30.52
2022-11-14T06:18:27.585Z,24.83
2022-11-14T06:20:54.976Z,27.95
2022-11-14T06:23:24.787Z,26.80
2022-11-14T06:25:52.241Z,26.50
2022-11-14T06:28:19.344Z,23.10
2022-11-14T06:30:46.413Z,24.38
2022-11-14T06:33:13.558Z,25.27
2022-11-14T06:35:40.625Z,30.85
2022-11-14T06:38:07.712Z,27.50
2022-11-14T06:40:34.771Z,29.80
2022-11-14T06:43:01.867Z,24.77
2022-11-14T06:45:28.977Z,23.25
2022-11-14T06:47:59.133Z,24.83
2022-11-14T06:50:26.575Z,22.52
2022-11-14T06:52:53.732Z,20.90
2022-11-14T06:55:25.147Z,19.08
2022-11-14T06:57:56.086Z,19.87
2022-11-14T07:00:23.365Z,21.05
2022-11-14T07:02:50.493Z,19.92
2022-11-14T07:05:17.686Z,17.63
2022-11-14T07:07:45.097Z,16.65
2022-11-14T07:10:12.364Z,15.65
2022-11-14T07:12:39.443Z,15.07
2022-11-14T07:15:06.711Z,14.82
2022-11-14T07:17:36.223Z,16.38
2022-11-14T07:20:03.365Z,12.75
2022-11-14T07:22:30.456Z,15.20
2022-11-14T07:24:57.585Z,16.20
2022-11-14T07:27:24.661Z,20.75
2022-11-14T07:29:51.765Z,21.10
2022-11-14T07:32:18.862Z,25.05
2022-11-14T07:34:46.005Z,19.60
2022-11-14T07:37:13.269Z,21.73
2022-11-14T07:39:40.382Z,21.70
2022-11-14T07:42:07.519Z,19.77
2022-11-14T07:44:34.641Z,24.88
2022-11-14T07:47:01.731Z,18.88
2022-11-14T07:49:28.794Z,16.70
2022-11-14T07:51:55.920Z,18.55
2022-11-14T07:54:23.007Z,19.08
2022-11-14T07:56:50.082Z,20.50
2022-11-14T07:59:17.141Z,19.20
2022-11-14T08:01:44.237Z,19.45
2022-11-14T08:04:11.388Z,20.75
2022-11-14T08:06:38.444Z,16.88
2022-11-14T08:09:05.546Z,27.05
2022-11-14T08:11:48.106Z,20.67
2022-11-14T08:14:15.977Z,17.80
2022-11-14T08:16:43.091Z,17.90
2022-11-14T08:19:10.195Z,15.95
2022-11-14T08:21:37.276Z,17.55
2022-11-14T08:24:04.447Z,15.82
2022-11-14T08:26:34.223Z,20.90
2022-11-14T08:29:01.758Z,21.88
2022-11-14T08:31:28.962Z,20.48
2022-11-14T08:33:56.085Z,16.67
2022-11-14T08:36:23.200Z,15.93
2022-11-14T08:38:51.676Z,16.42
2022-11-14T08:41:19.112Z,15.68
2022-11-14T08:43:46.333Z,14.93
2022-11-14T08:46:13.422Z,14.18
2022-11-14T08:48:40.465Z,14.80
2022-11-14T08:51:07.711Z,14.73
2022-11-14T08:53:34.922Z,18.05
2022-11-14T08:56:02.114Z,17.58
2022-11-14T08:58:31.268Z,21.65
2022-11-14T09:01:06.185Z,23.92
2022-11-14T09:03:33.824Z,47.75
2022-11-14T09:06:01.279Z,15.57
2022-11-14T09:08:28.938Z,14.30
2022-11-14T09:10:58.326Z,14.25
2022-11-14T09:13:28.892Z,14.80
2022-11-14T09:15:56.329Z,15.80
2022-11-14T09:18:23.403Z,29.55
2022-11-14T09:20:50.482Z,15.25
2022-11-14T09:23:17.646Z,15.98
2022-11-14T09:25:45.190Z,13.55
2022-11-14T09:28:12.306Z,14.15
2022-11-14T09:30:41.026Z,19.55
2022-11-14T09:33:11.654Z,12.55
2022-11-14T09:35:39.206Z,14.57
2022-11-14T09:38:07.488Z,16.38
2022-11-14T09:40:45.125Z,12.50
2022-11-14T09:43:12.168Z,17.45
2022-11-14T09:45:41.850Z,23.70
2022-11-14T09:48:13.223Z,13.40
2022-11-14T09:50:48.801Z,13.63
2022-11-14T09:53:18.610Z,15.68
2022-11-14T09:55:45.712Z,11.77
2022-11-14T09:58:16.036Z,10.93
2022-11-14T10:00:52.540Z,8.88
2022-11-14T10:03:34.853Z,11.52
2022-11-14T10:06:18.717Z,7.53
2022-11-14T10:08:55.023Z,8.40
2022-11-14T10:11:33.315Z,8.23
2022-11-14T10:14:00.369Z,8.18
2022-11-14T10:16:30.613Z,11.85
2022-11-14T10:19:12.737Z,12.38
2022-11-14T10:22:00.099Z,9.40
2022-11-14T10:24:30.334Z,12.13
2022-11-14T10:27:04.963Z,10.05
2022-11-14T10:29:32.010Z,14.60
2022-11-14T10:32:06.137Z,15.38
2022-11-14T10:34:41.743Z,21.13
2022-11-14T10:37:17.055Z,18.08
2022-11-14T10:39:55.430Z,23.80
2022-11-14T10:42:40.166Z,19.10
2022-11-14T10:45:07.408Z,17.90
2022-11-14T10:47:40.600Z,19.60
2022-11-14T10:50:29.213Z,17.63
2022-11-14T10:53:00.269Z,14.98
2022-11-14T10:55:57.340Z,15.73
2022-11-14T10:58:14.932Z,11.18
2022-11-14T11:00:42.126Z,6.07
2022-11-14T11:03:09.226Z,7.80
2022-11-14T11:05:45.887Z,6.75
2022-11-14T11:08:47.692Z,7.05
2022-11-14T11:11:31.249Z,6.05
2022-11-14T11:14:00.404Z,4.43
2022-11-14T11:16:28.416Z,4.85
2022-11-14T11:19:13.721Z,6.30
2022-11-14T11:21:52.662Z,5.93
2022-11-14T11:24:33.769Z,5.63
2022-11-14T11:27:15.256Z,6.80
2022-11-14T11:29:42.568Z,5.75
2022-11-14T11:32:10.074Z,6.30
2022-11-14T11:34:37.194Z,4.88
2022-11-14T11:37:04.348Z,3.92
2022-11-14T11:39:33.938Z,5.45
2022-11-14T11:42:11.160Z,4.32
2022-11-14T11:44:41.420Z,4.03
2022-11-14T11:47:14.688Z,3.65
2022-11-14T11:49:41.790Z,3.30
2022-11-14T11:52:18.702Z,2.80
2022-11-14T11:54:56.989Z,4.80
2022-11-14T11:57:27.139Z,4.07
2022-11-14T12:00:05.977Z,4.10
2022-11-14T12:02:33.298Z,2.58
2022-11-14T12:05:01.374Z,2.88
2022-11-14T12:07:48.420Z,1.75
2022-11-14T12:10:18.757Z,4.13
2022-11-14T12:12:55.076Z,4.28
2022-11-14T12:15:28.917Z,3.45
2022-11-14T12:18:14.943Z,2.15
2022-11-14T12:20:42.050Z,2.45
2022-11-14T12:23:27.316Z,2.30
2022-11-14T12:26:07.831Z,1.60
2022-11-14T12:28:59.311Z,1.77
2022-11-14T12:31:28.996Z,2.10
2022-11-14T12:34:01.840Z,2.47
2022-11-14T12:38:56.543Z,3.10
2022-11-14T12:41:28.131Z,3.08
2022-11-14T12:44:15.227Z,4.30
2022-11-14T12:47:18.009Z,2.20
2022-11-14T12:49:47.857Z,1.63
2022-11-14T12:52:33.830Z,3.92
2022-11-14T12:55:01.341Z,2.40
2022-11-14T12:57:50.053Z,1.77
2022-11-14T13:00:17.702Z,2.65
2022-11-14T13:02:44.814Z,1.90
2022-11-14T13:05:24.482Z,2.30
2022-11-14T13:07:57.748Z,3.13
2022-11-14T13:10:30.592Z,2.60
2022-11-14T13:16:18.001Z,3.10
2022-11-14T13:19:14.840Z,3.97
2022-11-14T13:22:00.961Z,3.03
2022-11-14T13:24:28.175Z,2.65
2022-11-14T13:26:55.949Z,4.00
2022-11-14T13:29:41.273Z,2.42
2022-11-14T13:32:12.116Z,2.13
2022-11-14T13:34:58.220Z,3.30
2022-11-14T13:37:40.620Z,1.55
2022-11-14T13:40:26.252Z,2.80
2022-11-14T13:42:53.366Z,2.00
2022-11-14T13:45:38.937Z,4.57
2022-11-14T13:48:15.104Z,2.15
2022-11-14T13:50:43.316Z,2.28
2022-11-14T13:53:15.253Z,3.13
2022-11-14T13:56:02.613Z,2.03
2022-11-14T13:58:41.976Z,4.88
2022-11-14T14:01:28.773Z,3.83
2022-11-14T14:04:13.706Z,3.63
2022-11-14T14:06:53.416Z,5.32
2022-11-14T14:09:28.118Z,3.38
2022-11-14T14:12:04.574Z,2.33
2022-11-14T14:14:37.704Z,3.75
2022-11-14T14:17:13.760Z,4.47
2022-11-14T14:19:53.176Z,4.78
2022-11-14T14:22:33.716Z,4.88
2022-11-14T14:25:12.784Z,3.20
2022-11-14T14:27:58.546Z,1.63
2022-11-14T14:30:25.709Z,1.65
2022-11-14T14:33:07.927Z,3.42
2022-11-14T14:35:40.379Z,2.10
2022-11-14T14:38:12.282Z,3.50
2022-11-14T14:40:40.813Z,2.08
2022-11-14T14:43:08.844Z,3.92
2022-11-14T14:45:45.218Z,4.55
2022-11-14T14:48:16.475Z,3.50
2022-11-14T14:50:48.684Z,2.92
2022-11-14T14:53:20.254Z,2.20
2022-11-14T14:55:56.419Z,5.22
2022-11-14T14:58:23.531Z,3.70
2022-11-14T15:00:55.010Z,6.10
2022-11-14T15:03:23.288Z,1.85
2022-11-14T15:05:57.697Z,2.30
2022-11-14T15:08:24.974Z,3.58
2022-11-14T15:10:53.313Z,2.75
2022-11-14T15:13:20.604Z,3.50
2022-11-14T15:15:47.748Z,3.35
2022-11-14T15:18:19.502Z,2.65
2022-11-14T15:21:06.531Z,5.13
2022-11-14T15:23:33.645Z,4.10
2022-11-14T15:26:03.856Z,5.18
2022-11-14T15:28:32.773Z,2.05
2022-11-14T15:31:01.117Z,4.93
2022-11-14T15:33:29.667Z,2.83
2022-11-14T15:36:07.141Z,4.80
2022-11-14T15:38:43.993Z,3.28
2022-11-14T15:41:20.533Z,3.10
2022-11-14T15:43:49.411Z,3.03
2022-11-14T15:46:28.625Z,3.30
2022-11-14T15:48:56.467Z,2.20
2022-11-14T15:51:46.693Z,3.60
2022-11-14T15:54:21.584Z,2.30
2022-11-14T15:56:48.813Z,3.33
2022-11-14T15:59:15.897Z,3.00
2022-11-14T16:01:43.954Z,4.20
2022-11-14T16:04:16.551Z,4.82
2022-11-14T16:06:43.919Z,4.25
2022-11-14T16:09:18.291Z,4.95
2022-11-14T16:11:47.699Z,2.85
2022-11-14T16:14:16.123Z,2.72
2022-11-14T16:16:43.323Z,5.07
2022-11-14T16:19:11.434Z,5.40
2022-11-14T16:21:38.645Z,2.92
2022-11-14T16:24:06.352Z,3.88
2022-11-14T16:26:33.429Z,5.35
2022-11-14T16:29:00.677Z,5.07
2022-11-14T16:31:27.758Z,4.28
2022-11-14T16:33:57.237Z,4.28
2022-11-14T16:36:24.330Z,5.10
2022-11-14T16:38:52.550Z,4.47
2022-11-14T16:41:20.268Z,6.28
2022-11-14T16:43:47.470Z,4.25
2022-11-14T16:46:14.637Z,5.85
2022-11-14T16:48:41.773Z,3.35
2022-11-14T16:51:33.137Z,4.32
2022-11-14T16:53:57.253Z,3.97
2022-11-14T16:56:24.414Z,3.70
2022-11-14T16:58:55.578Z,3.95
2022-11-14T17:01:23.857Z,2.72
2022-11-14T17:03:51.036Z,3.75
2022-11-14T17:06:18.234Z,3.40
2022-11-14T17:08:45.324Z,4.35
2022-11-14T17:11:12.464Z,3.80
2022-11-14T17:13:39.589Z,3.78
2022-11-14T17:16:06.873Z,3.65
2022-11-14T17:18:38.369Z,4.65
2022-11-14T17:21:07.200Z,2.45
2022-11-14T17:23:34.291Z,4.53
2022-11-14T17:26:02.293Z,3.90
2022-11-14T17:28:29.809Z,3.67
2022-11-14T17:30:57.481Z,4.22
2022-11-14T17:33:24.603Z,3.83
2022-11-14T17:35:51.684Z,4.82
2022-11-14T17:38:18.777Z,3.50
2022-11-14T17:40:46.013Z,5.53
2022-11-14T17:43:14.905Z,4.78
2022-11-14T17:45:41.970Z,5.80
2022-11-14T17:48:09.070Z,5.78
2022-11-14T17:50:40.117Z,4.93
2022-11-14T17:53:07.228Z,3.90
2022-11-14T17:55:34.342Z,3.67
2022-11-14T17:58:02.719Z,5.03
2022-11-14T18:00:29.889Z,3.72
2022-11-14T18:02:57.041Z,3.85
2022-11-14T18:05:24.561Z,7.93
2022-11-14T18:07:51.626Z,3.85
2022-11-14T18:10:18.762Z,5.97
2022-11-14T18:12:45.952Z,5.72
2022-11-14T18:15:15.094Z,4.43
2022-11-14T18:17:42.359Z,5.22
2022-11-14T18:20:09.597Z,4.30
2022-11-14T18:22:36.693Z,9.05
2022-11-14T18:25:07.832Z,7.45
2022-11-14T18:27:35.647Z,9.20
2022-11-14T18:30:13.805Z,5.05
2022-11-14T18:32:47.076Z,5.32
2022-11-14T18:35:14.266Z,5.20
2022-11-14T18:37:41.369Z,8.00
2022-11-14T18:40:14.770Z,9.70
2022-11-14T18:42:43.163Z,6.22
2022-11-14T18:45:10.360Z,5.90
2022-11-14T18:47:37.451Z,6.85
2022-11-14T18:50:04.760Z,9.18
2022-11-14T18:52:32.014Z,14.38
2022-11-14T18:54:59.082Z,7.35
2022-11-14T18:57:26.216Z,7.72
2022-11-14T18:59:53.443Z,7.10
2022-11-14T19:02:20.589Z,10.90
2022-11-14T19:04:47.728Z,10.85
2022-11-14T19:07:15.335Z,10.00
2022-11-14T19:09:44.305Z,7.68
2022-11-14T19:12:22.717Z,7.43
2022-11-14T19:14:51.033Z,7.03
2022-11-14T19:17:22.557Z,7.30
2022-11-14T19:19:50.476Z,10.38
2022-11-14T19:22:17.747Z,16.52
2022-11-14T19:24:47.999Z,11.70
2022-11-14T19:27:15.150Z,9.20
2022-11-14T19:29:42.331Z,10.27
2022-11-14T19:32:09.580Z,9.82
2022-11-14T19:34:36.725Z,6.50
2022-11-14T19:37:03.946Z,10.30
2022-11-14T19:39:31.097Z,7.82
2022-11-14T19:41:58.207Z,14.57
2022-11-14T19:44:25.364Z,7.88
2022-11-14T19:46:52.533Z,9.07
2022-11-14T19:49:20.066Z,10.63
2022-11-14T19:51:47.289Z,8.18
2022-11-14T19:54:14.478Z,8.23
2022-11-14T19:56:41.646Z,5.63
2022-11-14T19:59:14.407Z,8.45
2022-11-14T20:01:43.376Z,7.03
2022-11-14T20:04:12.226Z,6.00
2022-11-14T20:06:39.663Z,8.75
2022-11-14T20:09:08.641Z,5.05
2022-11-14T20:11:35.965Z,6.07
2022-11-14T20:14:05.465Z,5.35
2022-11-14T20:16:33.860Z,4.18
2022-11-14T20:19:01.782Z,4.53
2022-11-14T20:21:30.192Z,7.50
2022-11-14T20:23:57.603Z,4.32
2022-11-14T20:26:25.049Z,6.00
2022-11-14T20:28:53.880Z,5.80
2022-11-14T20:31:25.498Z,5.15
2022-11-14T20:33:53.621Z,5.43
2022-11-14T20:36:21.815Z,5.50
2022-11-14T20:38:49.371Z,5.57
2022-11-14T20:41:16.642Z,4.28
2022-11-14T20:43:44.229Z,3.72
2022-11-14T20:46:13.207Z,4.28
2022-11-14T20:48:40.693Z,5.80
2022-11-14T20:51:09.048Z,7.60
2022-11-14T20:53:36.184Z,4.18
2022-11-14T20:56:04.051Z,10.27
2022-11-14T20:58:31.398Z,7.25
2022-11-14T21:00:58.765Z,5.10
2022-11-14T21:03:26.229Z,7.63
2022-11-14T21:05:53.377Z,5.18
2022-11-14T21:08:20.530Z,4.65
2022-11-14T21:10:49.041Z,5.45
2022-11-14T21:13:39.295Z,4.80
2022-11-14T21:16:08.049Z,6.38
2022-11-14T21:18:35.460Z,5.75
2022-11-14T21:21:06.963Z,6.68
2022-11-14T21:23:34.343Z,5.88
2022-11-14T21:26:02.805Z,5.85
2022-11-14T21:28:30.992Z,6.85
2022-11-14T21:31:00.558Z,4.68
2022-11-14T21:33:29.339Z,6.25
2022-11-14T21:36:03.895Z,5.78
2022-11-14T21:38:43.602Z,8.25
2022-11-14T21:41:16.355Z,7.50
2022-11-14T21:46:10.886Z,5.57
2022-11-14T21:48:41.468Z,7.18
2022-11-14T21:51:08.921Z,8.43
2022-11-14T21:53:36.460Z,14.82
2022-11-14T21:56:10.883Z,10.65
2022-11-14T21:58:38.041Z,9.95
2022-11-14T22:01:15.897Z,13.98
2022-11-14T22:04:02.057Z,8.32
2022-11-14T22:06:29.134Z,9.88
2022-11-14T22:08:56.541Z,17.33
2022-11-14T22:11:24.041Z,11.50
2022-11-14T22:13:51.181Z,14.80
2022-11-14T22:16:19.521Z,13.68
2022-11-14T22:18:47.368Z,11.48
2022-11-14T22:21:14.633Z,8.88
2022-11-14T22:23:43.783Z,6.65
2022-11-14T22:26:11.534Z,7.35
2022-11-14T22:28:39.119Z,8.95
2022-11-14T22:31:07.623Z,4.95
2022-11-14T22:33:35.581Z,8.02
2022-11-14T22:36:03.507Z,4.57
2022-11-14T22:38:31.340Z,2.25
2022-11-14T22:40:58.721Z,5.50
2022-11-14T22:43:26.685Z,3.92
2022-11-14T22:45:54.185Z,2.95
2022-11-14T22:48:21.424Z,5.05
2022-11-14T22:50:48.710Z,5.28
2022-11-14T22:53:15.802Z,4.07
2022-11-14T22:55:51.928Z,6.18
2022-11-14T22:58:19.149Z,6.28
2022-11-14T23:00:46.241Z,6.28
2022-11-14T23:03:19.133Z,6.63
2022-11-14T23:05:47.771Z,5.60
2022-11-14T23:08:15.929Z,6.60
2022-11-14T23:10:43.566Z,5.18
2022-11-14T23:13:10.877Z,3.78
2022-11-14T23:15:38.068Z,3.85
2022-11-14T23:18:06.282Z,4.40
2022-11-14T23:20:35.206Z,3.67
2022-11-14T23:23:02.361Z,5.65
2022-11-14T23:25:29.538Z,4.78
2022-11-14T23:27:56.729Z,5.07
2022-11-14T23:30:23.813Z,2.83
2022-11-14T23:32:50.891Z,4.05
2022-11-14T23:35:17.956Z,6.50
2022-11-14T23:37:45.083Z,3.63
2022-11-14T23:40:12.297Z,3.85
2022-11-14T23:42:39.375Z,5.60
2022-11-14T23:45:06.757Z,3.10
2022-11-14T23:47:34.064Z,2.55
2022-11-14T23:50:01.133Z,5.70
2022-11-14T23:52:28.369Z,5.22
2022-11-14T23:54:55.508Z,5.10
2022-11-14T23:57:22.638Z,3.60
2022-11-14T23:59:49.724Z,4.35
